createdAt,value
2022-11-09T00:00:42.517Z,10.13
2022-11-09T00:03:09.436Z,10.27
2022-11-09T00:05:36.060Z,10.70
2022-11-09T00:08:06.602Z,12.03
2022-11-09T00:10:33.814Z,13.13
2022-11-09T00:13:01.037Z,12.20
2022-11-09T00:15:28.343Z,12.00
2022-11-09T00:17:55.031Z,12.60
2022-11-09T00:20:21.699Z,13.90
2022-11-09T00:22:49.304Z,13.13
2022-11-09T00:25:16.166Z,12.00
2022-11-09T00:27:42.875Z,13.17
2022-11-09T00:30:12.831Z,11.80
2022-11-09T00:32:39.399Z,12.37
2022-11-09T00:35:06.528Z,11.50
2022-11-09T00:37:33.283Z,12.03
2022-11-09T00:40:00.048Z,11.50
2022-11-09T00:42:26.700Z,12.27
2022-11-09T00:44:53.411Z,11.50
2022-11-09T00:47:20.220Z,11.80
2022-11-09T00:49:47.151Z,11.03
2022-11-09T00:52:13.805Z,11.77
2022-11-09T00:54:40.443Z,11.50
2022-11-09T00:57:07.067Z,11.67
2022-11-09T00:59:33.768Z,12.60
2022-11-09T01:02:00.370Z,11.67
2022-11-09T01:04:26.972Z,12.47
2022-11-09T01:06:53.622Z,12.17
2022-11-09T01:09:34.468Z,10.57
2022-11-09T01:12:01.574Z,12.03
2022-11-09T01:14:28.132Z,11.20
2022-11-09T01:16:54.708Z,11.63
2022-11-09T01:19:21.287Z,12.70
2022-11-09T01:21:48.031Z,11.20
2022-11-09T01:24:14.579Z,11.17
2022-11-09T01:26:41.195Z,12.33
2022-11-09T01:29:07.754Z,11.90
2022-11-09T01:31:34.366Z,12.00
2022-11-09T01:34:00.946Z,12.03
2022-11-09T01:36:27.563Z,11.47
2022-11-09T01:38:54.338Z,12.03
2022-11-09T01:41:26.986Z,11.90
2022-11-09T01:44:13.718Z,11.47
2022-11-09T01:47:06.503Z,10.70
2022-11-09T01:49:48.946Z,10.13
2022-11-09T01:52:21.336Z,11.47
2022-11-09T01:54:52.246Z,10.37
2022-11-09T01:57:30.334Z,10.53
2022-11-09T02:00:10.247Z,12.53
2022-11-09T02:02:40.958Z,12.90
2022-11-09T02:05:10.919Z,11.27
2022-11-09T02:07:38.877Z,11.83
2022-11-09T02:10:16.434Z,10.90
2022-11-09T02:12:44.746Z,11.20
2022-11-09T02:15:12.672Z,11.10
2022-11-09T02:17:43.164Z,11.90
2022-11-09T02:20:12.642Z,11.90
2022-11-09T02:22:41.535Z,11.33
2022-11-09T02:25:12.813Z,10.80
2022-11-09T02:27:40.401Z,11.27
2022-11-09T02:30:07.727Z,11.73
2022-11-09T02:32:34.370Z,11.40
2022-11-09T02:35:01.060Z,11.10
2022-11-09T02:37:31.970Z,11.50
2022-11-09T02:40:01.196Z,11.70
2022-11-09T02:42:28.062Z,10.83
2022-11-09T02:44:58.553Z,11.10
2022-11-09T02:47:25.419Z,11.00
2022-11-09T02:49:52.438Z,12.00
2022-11-09T02:52:19.262Z,11.67
2022-11-09T02:54:46.207Z,10.60
2022-11-09T02:57:12.855Z,11.47
2022-11-09T02:59:39.595Z,12.00
2022-11-09T03:02:06.222Z,10.77
2022-11-09T03:04:32.935Z,10.90
2022-11-09T03:06:59.572Z,11.80
2022-11-09T03:09:26.251Z,11.73
2022-11-09T03:11:52.846Z,11.33
2022-11-09T03:14:19.470Z,11.93
2022-11-09T03:16:50.237Z,11.70
2022-11-09T03:19:17.464Z,9.77
2022-11-09T03:21:44.020Z,11.10
2022-11-09T03:24:10.598Z,10.70
2022-11-09T03:26:37.203Z,11.53
2022-11-09T03:29:03.875Z,11.10
2022-11-09T03:31:30.439Z,10.93
2022-11-09T03:33:57.041Z,11.80
2022-11-09T03:36:23.596Z,12.13
2022-11-09T03:38:50.164Z,10.03
2022-11-09T03:41:16.782Z,10.80
2022-11-09T03:43:43.565Z,9.87
2022-11-09T03:46:10.116Z,9.70
2022-11-09T03:48:36.673Z,9.90
2022-11-09T03:51:03.299Z,10.53
2022-11-09T03:53:30.038Z,9.50
2022-11-09T03:55:57.966Z,11.77
2022-11-09T03:58:24.836Z,10.47
2022-11-09T04:00:51.900Z,10.40
2022-11-09T04:03:18.805Z,9.93
2022-11-09T04:05:45.668Z,11.30
2022-11-09T04:08:12.216Z,10.53
2022-11-09T04:10:38.782Z,9.77
2022-11-09T04:13:05.414Z,10.93
2022-11-09T04:15:31.983Z,11.40
2022-11-09T04:17:59.955Z,10.60
2022-11-09T04:20:28.590Z,9.90
2022-11-09T04:22:57.341Z,10.70
2022-11-09T04:25:26.071Z,10.47
2022-11-09T04:27:59.540Z,10.80
2022-11-09T04:30:28.322Z,10.67
2022-11-09T04:32:59.419Z,11.37
2022-11-09T04:35:27.852Z,11.40
2022-11-09T04:38:03.101Z,11.00
2022-11-09T04:40:32.046Z,10.73
2022-11-09T04:43:06.620Z,10.30
2022-11-09T04:45:34.956Z,10.53
2022-11-09T04:48:03.610Z,11.90
2022-11-09T04:50:30.751Z,12.83
2022-11-09T04:53:12.147Z,11.40
2022-11-09T04:55:39.315Z,11.63
2022-11-09T04:58:06.384Z,11.53
2022-11-09T05:00:33.612Z,13.33
2022-11-09T05:03:05.140Z,13.53
2022-11-09T05:05:34.537Z,13.13
2022-11-09T05:08:01.717Z,12.57
2022-11-09T05:10:28.553Z,12.27
2022-11-09T05:13:10.210Z,13.03
2022-11-09T05:15:36.905Z,12.10
2022-11-09T05:18:04.871Z,10.20
2022-11-09T05:20:43.506Z,12.30
2022-11-09T05:23:28.829Z,13.33
2022-11-09T05:25:55.412Z,10.90
2022-11-09T05:28:22.051Z,10.73
2022-11-09T05:30:48.599Z,11.60
2022-11-09T05:33:17.393Z,10.10
2022-11-09T05:35:44.193Z,10.40
2022-11-09T05:38:10.755Z,10.60
2022-11-09T05:40:37.356Z,9.90
2022-11-09T05:43:06.387Z,11.03
2022-11-09T05:45:48.291Z,11.50
2022-11-09T05:48:17.278Z,12.27
2022-11-09T05:50:44.770Z,10.87
2022-11-09T05:53:12.476Z,11.13
2022-11-09T05:55:40.049Z,12.43
2022-11-09T05:58:07.103Z,13.37
2022-11-09T06:00:33.752Z,11.60
2022-11-09T06:03:08.915Z,11.63
2022-11-09T06:05:37.192Z,10.70
2022-11-09T06:08:10.036Z,11.10
2022-11-09T06:10:37.226Z,10.23
2022-11-09T06:13:04.032Z,11.23
2022-11-09T06:15:31.531Z,10.70
2022-11-09T06:17:59.257Z,9.73
2022-11-09T06:20:27.371Z,11.27
2022-11-09T06:23:03.125Z,12.90
2022-11-09T06:25:31.715Z,14.07
2022-11-09T06:27:58.569Z,13.63
2022-11-09T06:30:25.298Z,12.93
2022-11-09T06:32:51.929Z,11.70
2022-11-09T06:35:18.506Z,12.53
2022-11-09T06:37:45.086Z,11.40
2022-11-09T06:40:12.847Z,11.50
2022-11-09T06:42:39.511Z,11.60
2022-11-09T06:45:06.717Z,11.97
2022-11-09T06:47:33.359Z,11.23
2022-11-09T06:50:00.084Z,12.13
2022-11-09T06:52:26.731Z,13.53
2022-11-09T06:54:53.361Z,12.77
2022-11-09T06:57:20.001Z,12.60
2022-11-09T06:59:46.618Z,13.10
2022-11-09T07:02:17.684Z,12.80
2022-11-09T07:04:44.377Z,11.77
2022-11-09T07:07:11.187Z,13.37
2022-11-09T07:09:37.842Z,11.43
2022-11-09T07:12:04.723Z,13.20
2022-11-09T07:14:31.372Z,13.70
2022-11-09T07:17:00.235Z,14.23
2022-11-09T07:19:28.872Z,14.60
2022-11-09T07:21:56.295Z,15.60
2022-11-09T07:24:23.753Z,14.87
2022-11-09T07:26:50.528Z,14.03
2022-11-09T07:29:17.281Z,14.30
2022-11-09T07:31:44.101Z,15.23
2022-11-09T07:34:10.782Z,14.17
2022-11-09T07:36:37.402Z,16.93
2022-11-09T07:39:04.592Z,15.27
2022-11-09T07:41:34.617Z,16.70
2022-11-09T07:44:02.126Z,16.57
2022-11-09T07:46:28.781Z,15.47
2022-11-09T07:48:55.379Z,16.90
2022-11-09T07:51:22.114Z,17.13
2022-11-09T07:53:48.811Z,16.97
2022-11-09T07:56:15.572Z,16.53
2022-11-09T07:58:42.195Z,18.90
2022-11-09T08:01:10.696Z,18.20
2022-11-09T08:03:37.776Z,15.70
2022-11-09T08:06:04.580Z,16.83
2022-11-09T08:08:31.310Z,17.13
2022-11-09T08:10:58.557Z,17.10
2022-11-09T08:13:25.854Z,18.47
2022-11-09T08:15:52.497Z,18.50
2022-11-09T08:18:21.174Z,18.17
2022-11-09T08:20:48.947Z,18.23
2022-11-09T08:23:18.417Z,17.77
2022-11-09T08:25:45.399Z,18.67
2022-11-09T08:28:15.073Z,19.50
2022-11-09T08:30:43.628Z,18.43
2022-11-09T08:33:11.198Z,18.03
2022-11-09T08:35:37.941Z,18.60
2022-11-09T08:38:06.286Z,18.57
2022-11-09T08:40:34.531Z,18.37
2022-11-09T08:43:06.172Z,17.53
2022-11-09T08:45:35.001Z,17.60
2022-11-09T08:48:03.122Z,18.40
2022-11-09T08:50:30.903Z,19.40
2022-11-09T08:52:57.879Z,18.63
2022-11-09T08:55:24.928Z,16.73
2022-11-09T08:58:00.320Z,15.80
2022-11-09T09:00:27.860Z,16.73
2022-11-09T09:02:54.695Z,18.70
2022-11-09T09:05:25.017Z,17.57
2022-11-09T09:07:51.628Z,17.40
2022-11-09T09:10:18.425Z,16.27
2022-11-09T09:12:45.263Z,15.77
2022-11-09T09:15:11.842Z,16.33
2022-11-09T09:17:38.439Z,15.77
2022-11-09T09:20:05.704Z,16.27
2022-11-09T09:22:36.013Z,15.33
2022-11-09T09:25:03.396Z,16.37
2022-11-09T09:27:30.127Z,16.30
2022-11-09T09:29:57.260Z,16.43
2022-11-09T09:32:26.989Z,16.83
2022-11-09T09:34:53.610Z,16.70
2022-11-09T09:37:20.219Z,16.63
2022-11-09T09:39:46.803Z,16.90
2022-11-09T09:42:25.029Z,15.93
2022-11-09T09:45:06.096Z,16.13
2022-11-09T09:47:46.104Z,16.87
2022-11-09T09:50:45.533Z,17.50
2022-11-09T09:53:32.540Z,17.23
2022-11-09T09:56:08.228Z,17.47
2022-11-09T09:58:35.146Z,15.13
2022-11-09T10:01:15.870Z,15.20
2022-11-09T10:03:42.957Z,15.73
2022-11-09T10:06:38.196Z,14.60
2022-11-09T10:09:23.849Z,15.33
2022-11-09T10:12:01.425Z,14.40
2022-11-09T10:14:46.759Z,15.93
2022-11-09T10:17:45.601Z,14.63
2022-11-09T10:20:39.417Z,15.57
2022-11-09T10:23:12.128Z,14.87
2022-11-09T10:28:37.968Z,15.33
2022-11-09T10:31:19.747Z,15.27
2022-11-09T10:33:52.814Z,15.70
2022-11-09T10:36:51.870Z,14.07
2022-11-09T10:39:19.808Z,15.43
2022-11-09T10:41:46.929Z,14.73
2022-11-09T10:44:17.486Z,13.63
2022-11-09T10:47:14.996Z,13.40
2022-11-09T10:49:41.715Z,13.30
2022-11-09T10:52:43.025Z,14.97
2022-11-09T10:55:23.810Z,14.43
2022-11-09T10:58:02.185Z,13.27
2022-11-09T11:00:29.087Z,14.40
2022-11-09T11:02:56.137Z,13.43
2022-11-09T11:05:26.250Z,14.13
2022-11-09T11:07:52.989Z,14.10
2022-11-09T11:10:21.140Z,14.47
2022-11-09T11:13:00.280Z,13.60
2022-11-09T11:15:34.304Z,14.73
2022-11-09T11:18:02.637Z,14.80
2022-11-09T11:20:32.395Z,14.60
2022-11-09T11:23:17.800Z,13.90
2022-11-09T11:25:53.508Z,14.07
2022-11-09T11:28:38.029Z,13.23
2022-11-09T11:31:07.362Z,14.07
2022-11-09T11:33:34.699Z,14.50
2022-11-09T11:36:20.926Z,14.80
2022-11-09T11:39:29.842Z,13.53
2022-11-09T11:42:02.591Z,13.17
2022-11-09T11:44:45.207Z,14.73
2022-11-09T11:47:34.019Z,14.43
2022-11-09T11:50:46.169Z,13.53
2022-11-09T11:53:21.786Z,13.67
2022-11-09T11:56:04.625Z,15.37
2022-11-09T11:58:34.088Z,16.83
2022-11-09T12:01:17.746Z,16.97
2022-11-09T12:04:12.097Z,16.70
2022-11-09T12:06:48.578Z,14.37
2022-11-09T12:09:43.630Z,14.60
2022-11-09T12:12:32.474Z,18.50
2022-11-09T12:15:26.675Z,18.53
2022-11-09T12:18:08.319Z,19.07
2022-11-09T12:20:40.646Z,18.60
2022-11-09T12:23:38.023Z,17.33
2022-11-09T12:26:23.868Z,17.57
2022-11-09T12:29:16.445Z,19.60
2022-11-09T12:32:08.812Z,18.07
2022-11-09T12:35:01.529Z,19.00
2022-11-09T12:37:36.910Z,16.83
2022-11-09T12:40:14.055Z,17.57
2022-11-09T12:43:02.603Z,17.63
2022-11-09T12:45:38.977Z,17.87
2022-11-09T12:48:25.826Z,19.27
2022-11-09T12:50:53.591Z,19.03
2022-11-09T12:53:24.481Z,18.93
2022-11-09T12:55:54.118Z,19.30
2022-11-09T12:58:32.622Z,18.23
2022-11-09T13:01:01.985Z,18.13
2022-11-09T13:03:31.623Z,16.97
2022-11-09T13:06:13.988Z,19.00
2022-11-09T13:08:43.314Z,18.27
2022-11-09T13:11:17.388Z,18.80
2022-11-09T13:13:44.700Z,18.03
2022-11-09T13:16:33.348Z,16.00
2022-11-09T13:19:03.551Z,16.07
2022-11-09T13:21:30.061Z,15.10
2022-11-09T13:24:01.954Z,15.70
2022-11-09T13:26:33.427Z,16.23
2022-11-09T13:29:15.412Z,15.70
2022-11-09T13:32:11.464Z,14.93
2022-11-09T13:34:43.931Z,14.00
2022-11-09T13:37:55.507Z,14.87
2022-11-09T13:40:30.930Z,13.97
2022-11-09T13:43:04.482Z,15.47
2022-11-09T13:45:56.150Z,14.93
2022-11-09T13:48:45.697Z,14.83
2022-11-09T13:51:16.546Z,15.60
2022-11-09T13:53:53.511Z,14.90
2022-11-09T13:56:35.337Z,16.13
2022-11-09T13:59:18.773Z,14.03
2022-11-09T14:01:52.908Z,15.77
2022-11-09T14:04:22.648Z,15.00
2022-11-09T14:06:50.828Z,16.07
2022-11-09T14:09:20.349Z,16.50
2022-11-09T14:11:46.954Z,18.73
2022-11-09T14:15:17.720Z,18.70
2022-11-09T14:17:53.311Z,19.13
2022-11-09T14:21:07.343Z,16.80
2022-11-09T14:23:38.200Z,15.87
2022-11-09T14:26:09.443Z,16.00
2022-11-09T14:28:48.263Z,16.40
2022-11-09T14:31:26.390Z,18.97
2022-11-09T14:34:04.681Z,16.33
2022-11-09T14:36:35.025Z,16.23
2022-11-09T14:39:05.001Z,16.03
2022-11-09T14:41:31.755Z,16.50
2022-11-09T14:44:00.720Z,16.87
2022-11-09T14:46:29.896Z,17.60
2022-11-09T14:49:01.435Z,17.23
2022-11-09T14:51:33.460Z,16.07
2022-11-09T14:54:01.852Z,18.23
2022-11-09T14:56:33.970Z,17.10
2022-11-09T14:59:04.455Z,19.03
2022-11-09T15:01:37.927Z,19.90
2022-11-09T15:04:12.641Z,20.60
2022-11-09T15:07:01.037Z,21.03
2022-11-09T15:10:02.024Z,19.03
2022-11-09T15:12:31.946Z,21.90
2022-11-09T15:15:04.156Z,17.07
2022-11-09T15:18:06.312Z,18.77
2022-11-09T15:20:34.609Z,18.47
2022-11-09T15:23:08.895Z,17.27
2022-11-09T15:26:12.202Z,17.47
2022-11-09T15:32:21.455Z,16.87
2022-11-09T15:38:06.868Z,17.83
2022-11-09T15:40:36.527Z,17.07
2022-11-09T15:43:03.123Z,15.73
2022-11-09T15:45:29.776Z,17.60
2022-11-09T15:47:56.602Z,17.97
2022-11-09T15:50:27.882Z,15.47
2022-11-09T15:52:54.521Z,17.57
2022-11-09T15:55:23.338Z,17.67
2022-11-09T15:57:50.941Z,15.87
2022-11-09T16:00:21.231Z,15.73
2022-11-09T16:02:48.548Z,17.43
2022-11-09T16:05:15.881Z,15.93
2022-11-09T16:07:49.968Z,17.70
2022-11-09T16:10:20.351Z,16.50
2022-11-09T16:12:47.255Z,17.00
2022-11-09T16:15:14.249Z,18.77
2022-11-09T16:17:41.867Z,16.63
2022-11-09T16:20:10.616Z,17.87
2022-11-09T16:22:37.733Z,18.73
2022-11-09T16:25:04.625Z,19.93
2022-11-09T16:28:01.081Z,19.73
2022-11-09T16:30:19.377Z,18.93
2022-11-09T16:32:46.096Z,17.73
2022-11-09T16:35:26.695Z,17.97
2022-11-09T16:37:55.265Z,17.77
2022-11-09T16:40:22.896Z,18.13
2022-11-09T16:42:51.422Z,18.97
2022-11-09T16:45:19.667Z,18.23
2022-11-09T16:47:50.553Z,21.53
2022-11-09T16:50:17.572Z,19.67
2022-11-09T16:53:01.699Z,20.03
2022-11-09T16:59:27.113Z,20.13
2022-11-09T17:02:09.553Z,18.33
2022-11-09T17:04:36.172Z,19.27
2022-11-09T17:07:02.897Z,19.50
2022-11-09T17:09:44.368Z,21.33
2022-11-09T17:12:11.025Z,21.83
2022-11-09T17:14:55.589Z,19.60
2022-11-09T17:17:22.978Z,18.17
2022-11-09T17:19:49.739Z,18.77
2022-11-09T17:22:17.029Z,17.67
2022-11-09T17:24:43.682Z,18.47
2022-11-09T17:27:11.536Z,18.40
2022-11-09T17:29:39.043Z,17.83
2022-11-09T17:32:07.697Z,16.63
2022-11-09T17:34:50.260Z,15.60
2022-11-09T17:37:16.907Z,16.43
2022-11-09T17:39:43.553Z,15.23
2022-11-09T17:42:10.223Z,15.60
2022-11-09T17:44:37.398Z,17.47
2022-11-09T17:47:05.194Z,16.80
2022-11-09T17:49:32.082Z,15.80
2022-11-09T17:51:58.886Z,16.17
2022-11-09T17:54:25.600Z,15.37
2022-11-09T17:56:52.236Z,14.70
2022-11-09T17:59:18.867Z,15.37
2022-11-09T18:01:45.506Z,15.37
2022-11-09T18:04:12.250Z,15.33
2022-11-09T18:06:39.025Z,16.30
2022-11-09T18:11:52.692Z,16.67
2022-11-09T18:14:19.606Z,17.87
2022-11-09T18:16:49.192Z,17.97
2022-11-09T18:19:15.830Z,17.57
2022-11-09T18:21:45.380Z,16.50
2022-11-09T18:24:12.073Z,23.90
2022-11-09T18:26:42.239Z,21.93
2022-11-09T18:29:08.953Z,22.03
2022-11-09T18:31:37.149Z,21.47
2022-11-09T18:34:04.636Z,19.17
2022-11-09T18:36:34.463Z,20.87
2022-11-09T18:39:03.183Z,19.53
2022-11-09T18:41:29.928Z,20.63
2022-11-09T18:43:59.249Z,18.50
2022-11-09T18:46:31.442Z,16.80
2022-11-09T18:48:59.105Z,19.67
2022-11-09T18:51:28.250Z,18.37
2022-11-09T18:53:55.224Z,18.87
2022-11-09T18:56:24.587Z,16.80
2022-11-09T18:58:54.233Z,19.33
2022-11-09T19:01:26.915Z,19.57
2022-11-09T19:04:00.436Z,18.80
2022-11-09T19:06:47.494Z,17.93
2022-11-09T19:09:31.561Z,17.90
2022-11-09T19:12:00.967Z,17.03
2022-11-09T19:14:28.827Z,18.03
2022-11-09T19:16:56.742Z,18.63
2022-11-09T19:19:24.831Z,18.57
2022-11-09T19:21:53.453Z,17.57
2022-11-09T19:24:43.180Z,17.70
2022-11-09T19:27:09.987Z,16.87
2022-11-09T19:29:37.239Z,18.73
2022-11-09T19:32:04.330Z,17.10
2022-11-09T19:34:31.076Z,17.37
2022-11-09T19:36:58.130Z,19.40
2022-11-09T19:39:28.402Z,17.87
2022-11-09T19:41:59.309Z,18.37
2022-11-09T19:44:25.976Z,18.77
2022-11-09T19:46:52.901Z,19.23
2022-11-09T19:49:19.628Z,19.77
2022-11-09T19:51:46.273Z,25.67
2022-11-09T19:54:13.996Z,25.77
2022-11-09T19:56:40.690Z,26.90
2022-11-09T19:59:07.733Z,29.23
2022-11-09T20:01:34.637Z,33.57
2022-11-09T20:04:05.140Z,22.03
2022-11-09T20:06:36.669Z,21.27
2022-11-09T20:09:03.898Z,18.57
2022-11-09T20:11:49.278Z,17.83
2022-11-09T20:14:16.075Z,18.00
2022-11-09T20:16:44.504Z,18.53
2022-11-09T20:19:12.825Z,18.47
2022-11-09T20:21:41.397Z,16.70
2022-11-09T20:24:11.259Z,16.40
2022-11-09T20:26:42.420Z,16.17
2022-11-09T20:29:10.100Z,14.20
2022-11-09T20:31:37.448Z,17.10
2022-11-09T20:34:04.488Z,15.80
2022-11-09T20:36:31.268Z,14.50
2022-11-09T20:38:59.432Z,15.43
2022-11-09T20:41:26.416Z,15.63
2022-11-09T20:43:53.686Z,14.60
2022-11-09T20:46:23.307Z,15.87
2022-11-09T20:48:54.540Z,14.10
2022-11-09T20:51:23.423Z,13.47
2022-11-09T20:53:50.852Z,13.97
2022-11-09T20:56:19.001Z,14.60
2022-11-09T20:58:46.079Z,14.93
2022-11-09T21:01:12.785Z,14.40
2022-11-09T21:03:39.582Z,14.67
2022-11-09T21:06:07.982Z,14.80
2022-11-09T21:08:34.763Z,15.43
2022-11-09T21:11:02.928Z,15.17
2022-11-09T21:13:29.852Z,15.40
2022-11-09T21:15:56.796Z,15.13
2022-11-09T21:18:23.755Z,14.80
2022-11-09T21:20:50.596Z,15.30
2022-11-09T21:23:17.179Z,16.40
2022-11-09T21:26:03.187Z,16.07
2022-11-09T21:28:48.506Z,14.60
2022-11-09T21:31:15.105Z,14.37
2022-11-09T21:33:41.756Z,13.97
2022-11-09T21:36:12.895Z,14.87
2022-11-09T21:38:39.592Z,14.77
2022-11-09T21:41:27.654Z,15.13
2022-11-09T21:43:55.139Z,15.93
2022-11-09T21:46:23.857Z,14.97
2022-11-09T21:48:50.863Z,14.73
2022-11-09T21:51:17.608Z,15.47
2022-11-09T21:53:44.287Z,14.67
2022-11-09T21:56:11.299Z,14.70
2022-11-09T21:58:37.900Z,13.77
2022-11-09T22:01:10.662Z,15.23
2022-11-09T22:03:37.990Z,15.93
2022-11-09T22:06:05.295Z,15.57
2022-11-09T22:08:31.912Z,15.13
2022-11-09T22:12:01.795Z,14.30
2022-11-09T22:14:53.494Z,15.43
2022-11-09T22:17:20.213Z,15.70
2022-11-09T22:20:05.150Z,15.30
2022-11-09T22:22:38.098Z,15.43
2022-11-09T22:25:13.903Z,16.03
2022-11-09T22:30:31.838Z,14.37
2022-11-09T22:32:58.696Z,14.47
2022-11-09T22:35:25.310Z,13.37
2022-11-09T22:37:51.919Z,14.80
2022-11-09T22:40:18.676Z,14.57
2022-11-09T22:42:45.267Z,13.70
2022-11-09T22:45:12.209Z,14.03
2022-11-09T22:47:38.803Z,14.00
2022-11-09T22:50:05.894Z,13.67
2022-11-09T22:52:32.535Z,13.47
2022-11-09T22:54:59.177Z,12.67
2022-11-09T22:57:33.004Z,12.93
2022-11-09T23:00:01.739Z,14.00
2022-11-09T23:02:37.998Z,14.30
2022-11-09T23:05:10.620Z,12.73
2022-11-09T23:07:37.249Z,14.17
2022-11-09T23:10:04.649Z,13.90
2022-11-09T23:12:33.330Z,14.27
2022-11-09T23:15:04.038Z,14.70
2022-11-09T23:17:56.760Z,14.00
2022-11-09T23:20:23.694Z,13.57
2022-11-09T23:22:50.259Z,12.63
2022-11-09T23:25:35.677Z,12.87
2022-11-09T23:28:02.891Z,12.67
2022-11-09T23:30:29.694Z,13.33
2022-11-09T23:32:56.357Z,12.77
2022-11-09T23:35:22.925Z,13.27
2022-11-09T23:38:00.699Z,13.97
2022-11-09T23:40:28.635Z,12.10
2022-11-09T23:43:09.748Z,13.73
2022-11-09T23:45:39.100Z,12.40
